sensor_id;sensor_type;location;lat;lon;timestamp;pressure;altitude;pressure_sealevel;temperature;humidity
47556;BME280;33291;46.222;26.460;2024-01-30T00:01:05;98741.50;;;-1.84;80.73
47556;BME280;33291;46.222;26.460;2024-01-30T00:03:30;98744.06;;;-1.91;81.50
47556;BME280;33291;46.222;26.460;2024-01-30T00:05:56;98743.25;;;-1.97;81.35
47556;BME280;33291;46.222;26.460;2024-01-30T00:08:21;98749.22;;;-2.01;81.79
47556;BME280;33291;46.222;26.460;2024-01-30T00:10:47;98742.47;;;-2.12;82.06
47556;BME280;33291;46.222;26.460;2024-01-30T00:13:12;98756.94;;;-2.13;81.99
47556;BME280;33291;46.222;26.460;2024-01-30T00:15:39;98756.97;;;-2.24;82.00
47556;BME280;33291;46.222;26.460;2024-01-30T00:18:04;98751.03;;;-2.30;82.20
47556;BME280;33291;46.222;26.460;2024-01-30T00:20:30;98750.19;;;-2.42;82.69
47556;BME280;33291;46.222;26.460;2024-01-30T00:22:55;98744.25;;;-2.42;83.03
47556;BME280;33291;46.222;26.460;2024-01-30T00:25:21;98740.00;;;-2.48;82.82
47556;BME280;33291;46.222;26.460;2024-01-30T00:27:46;98746.81;;;-2.45;82.59
47556;BME280;33291;46.222;26.460;2024-01-30T00:30:12;98753.59;;;-2.49;82.25
47556;BME280;33291;46.222;26.460;2024-01-30T00:32:38;98750.22;;;-2.57;82.52
47556;BME280;33291;46.222;26.460;2024-01-30T00:35:03;98747.69;;;-2.65;82.50
47556;BME280;33291;46.222;26.460;2024-01-30T00:37:29;98749.41;;;-2.69;82.79
47556;BME280;33291;46.222;26.460;2024-01-30T00:39:56;98744.31;;;-2.72;83.14
47556;BME280;33291;46.222;26.460;2024-01-30T00:42:21;98739.19;;;-2.81;83.25
47556;BME280;33291;46.222;26.460;2024-01-30T00:44:49;98740.91;;;-2.86;84.13
47556;BME280;33291;46.222;26.460;2024-01-30T00:47:14;98746.00;;;-2.88;84.13
47556;BME280;33291;46.222;26.460;2024-01-30T00:49:40;98740.91;;;-2.92;84.16
47556;BME280;33291;46.222;26.460;2024-01-30T00:52:06;98737.53;;;-2.94;83.96
47556;BME280;33291;46.222;26.460;2024-01-30T00:54:31;98717.97;;;-3.06;83.90
47556;BME280;33291;46.222;26.460;2024-01-30T00:56:59;98740.91;;;-2.95;83.68
47556;BME280;33291;46.222;26.460;2024-01-30T00:59:25;98735.81;;;-3.01;83.49
47556;BME280;33291;46.222;26.460;2024-01-30T01:01:50;98723.91;;;-3.10;83.08
47556;BME280;33291;46.222;26.460;2024-01-30T01:04:16;98727.31;;;-3.10;82.78
47556;BME280;33291;46.222;26.460;2024-01-30T01:06:43;98727.28;;;-3.16;83.03
47556;BME280;33291;46.222;26.460;2024-01-30T01:09:11;98729.84;;;-3.17;83.17
47556;BME280;33291;46.222;26.460;2024-01-30T01:11:37;98723.91;;;-3.18;83.07
47556;BME280;33291;46.222;26.460;2024-01-30T01:14:03;98713.72;;;-3.27;82.70
47556;BME280;33291;46.222;26.460;2024-01-30T01:16:29;98731.56;;;-3.26;82.81
47556;BME280;33291;46.222;26.460;2024-01-30T01:18:55;98722.19;;;-3.33;82.89
47556;BME280;33291;46.222;26.460;2024-01-30T01:21:20;98713.69;;;-3.43;82.74
47556;BME280;33291;46.222;26.460;2024-01-30T01:23:46;98728.16;;;-3.37;82.16
47556;BME280;33291;46.222;26.460;2024-01-30T01:26:11;98718.78;;;-3.46;82.45
47556;BME280;33291;46.222;26.460;2024-01-30T01:28:40;98722.19;;;-3.44;81.98
47556;BME280;33291;46.222;26.460;2024-01-30T01:31:06;98722.19;;;-3.47;82.19
47556;BME280;33291;46.222;26.460;2024-01-30T01:33:32;98717.06;;;-3.50;81.71
47556;BME280;33291;46.222;26.460;2024-01-30T01:36:01;98719.63;;;-3.53;82.24
47556;BME280;33291;46.222;26.460;2024-01-30T01:38:28;98718.78;;;-3.55;81.97
47556;BME280;33291;46.222;26.460;2024-01-30T01:40:54;98707.69;;;-3.63;82.12
47556;BME280;33291;46.222;26.460;2024-01-30T01:43:19;98703.44;;;-3.77;81.83
47556;BME280;33291;46.222;26.460;2024-01-30T01:45:45;98713.63;;;-3.72;81.54
47556;BME280;33291;46.222;26.460;2024-01-30T01:48:11;98717.03;;;-3.78;81.34
47556;BME280;33291;46.222;26.460;2024-01-30T01:50:38;98717.81;;;-3.93;81.83
47556;BME280;33291;46.222;26.460;2024-01-30T01:53:06;98714.44;;;-3.96;82.15
47556;BME280;33291;46.222;26.460;2024-01-30T01:55:34;98710.19;;;-3.97;81.66
47556;BME280;33291;46.222;26.460;2024-01-30T01:58:00;98718.63;;;-4.01;81.61
47556;BME280;33291;46.222;26.460;2024-01-30T02:00:26;98694.81;;;-4.19;81.74
47556;BME280;33291;46.222;26.460;2024-01-30T02:02:54;98709.25;;;-4.13;81.85
47556;BME280;33291;46.222;26.460;2024-01-30T02:05:21;98707.56;;;-4.19;81.89
47556;BME280;33291;46.222;26.460;2024-01-30T02:07:47;98709.25;;;-4.13;81.71
47556;BME280;33291;46.222;26.460;2024-01-30T02:10:13;98707.56;;;-4.17;81.77
47556;BME280;33291;46.222;26.460;2024-01-30T02:12:39;98716.91;;;-4.12;81.65
47556;BME280;33291;46.222;26.460;2024-01-30T02:15:05;98718.59;;;-4.14;82.10
47556;BME280;33291;46.222;26.460;2024-01-30T02:17:32;98710.94;;;-4.17;82.25
47556;BME280;33291;46.222;26.460;2024-01-30T02:19:58;98707.56;;;-4.20;82.12
47556;BME280;33291;46.222;26.460;2024-01-30T02:22:24;98707.53;;;-4.25;81.97
47556;BME280;33291;46.222;26.460;2024-01-30T02:24:49;98704.97;;;-4.28;82.21
47556;BME280;33291;46.222;26.460;2024-01-30T02:27:15;98715.13;;;-4.31;81.78
47556;BME280;33291;46.222;26.460;2024-01-30T02:29:41;98712.53;;;-4.36;81.63
47556;BME280;33291;46.222;26.460;2024-01-30T02:32:06;98720.19;;;-4.34;81.78
47556;BME280;33291;46.222;26.460;2024-01-30T02:34:33;98716.78;;;-4.36;81.59
47556;BME280;33291;46.222;26.460;2024-01-30T02:36:58;98714.19;;;-4.46;81.68
47556;BME280;33291;46.222;26.460;2024-01-30T02:39:24;98721.84;;;-4.46;81.62
47556;BME280;33291;46.222;26.460;2024-01-30T02:41:50;98716.72;;;-4.50;81.87
47556;BME280;33291;46.222;26.460;2024-01-30T02:44:15;98720.94;;;-4.54;82.37
47556;BME280;33291;46.222;26.460;2024-01-30T02:46:41;98714.97;;;-4.59;82.02
47556;BME280;33291;46.222;26.460;2024-01-30T02:49:06;98714.94;;;-4.65;82.54
47556;BME280;33291;46.222;26.460;2024-01-30T02:51:32;98710.72;;;-4.65;82.22
47556;BME280;33291;46.222;26.460;2024-01-30T02:53:57;98711.53;;;-4.70;81.94
47556;BME280;33291;46.222;26.460;2024-01-30T02:56:23;98726.81;;;-4.64;81.74
47556;BME280;33291;46.222;26.460;2024-01-30T02:58:48;98718.28;;;-4.71;81.08
47556;BME280;33291;46.222;26.460;2024-01-30T03:01:14;98713.19;;;-4.72;80.98
47556;BME280;33291;46.222;26.460;2024-01-30T03:03:39;98715.81;;;-4.65;80.89
47556;BME280;33291;46.222;26.460;2024-01-30T03:06:06;98716.63;;;-4.66;81.24
47556;BME280;33291;46.222;26.460;2024-01-30T03:08:32;98709.00;;;-4.67;81.44
47556;BME280;33291;46.222;26.460;2024-01-30T03:10:58;98711.53;;;-4.70;81.23
47556;BME280;33291;46.222;26.460;2024-01-30T03:13:23;98714.88;;;-4.74;81.81
47556;BME280;33291;46.222;26.460;2024-01-30T03:15:50;98714.00;;;-4.79;81.95
47556;BME280;33291;46.222;26.460;2024-01-30T03:18:15;98711.44;;;-4.83;81.77
47556;BME280;33291;46.222;26.460;2024-01-30T03:20:41;98699.53;;;-4.90;82.36
47556;BME280;33291;46.222;26.460;2024-01-30T03:23:07;98704.63;;;-4.90;82.28
47556;BME280;33291;46.222;26.460;2024-01-30T03:25:32;98701.22;;;-4.93;82.54
47556;BME280;33291;46.222;26.460;2024-01-30T03:27:58;98696.91;;;-5.04;82.05
47556;BME280;33291;46.222;26.460;2024-01-30T03:30:23;98702.81;;;-5.06;82.30
47556;BME280;33291;46.222;26.460;2024-01-30T03:32:49;98707.03;;;-5.08;82.26
47556;BME280;33291;46.222;26.460;2024-01-30T03:35:15;98695.97;;;-5.10;82.52
47556;BME280;33291;46.222;26.460;2024-01-30T03:37:41;98695.97;;;-5.13;82.73
47556;BME280;33291;46.222;26.460;2024-01-30T03:40:07;98700.22;;;-5.11;82.28
47556;BME280;33291;46.222;26.460;2024-01-30T03:42:32;98698.50;;;-5.15;82.55
47556;BME280;33291;46.222;26.460;2024-01-30T03:44:58;98674.69;;;-5.29;82.31
47556;BME280;33291;46.222;26.460;2024-01-30T03:47:24;98690.84;;;-5.20;82.79
47556;BME280;33291;46.222;26.460;2024-01-30T03:49:49;98689.97;;;-5.23;83.11
47556;BME280;33291;46.222;26.460;2024-01-30T03:52:15;98685.66;;;-5.32;83.14
47556;BME280;33291;46.222;26.460;2024-01-30T03:54:40;98689.94;;;-5.26;82.81
47556;BME280;33291;46.222;26.460;2024-01-30T03:57:06;98694.09;;;-5.33;83.21
47556;BME280;33291;46.222;26.460;2024-01-30T03:59:31;98678.00;;;-5.35;82.98
47556;BME280;33291;46.222;26.460;2024-01-30T04:01:57;98672.06;;;-5.40;83.25
47556;BME280;33291;46.222;26.460;2024-01-30T04:04:23;98682.22;;;-5.40;83.32
47556;BME280;33291;46.222;26.460;2024-01-30T04:06:48;98684.78;;;-5.36;83.05
47556;BME280;33291;46.222;26.460;2024-01-30T04:09:14;98681.38;;;-5.36;82.83
47556;BME280;33291;46.222;26.460;2024-01-30T04:11:40;98689.88;;;-5.34;82.96
47556;BME280;33291;46.222;26.460;2024-01-30T04:14:05;98686.44;;;-5.38;83.05
47556;BME280;33291;46.222;26.460;2024-01-30T04:16:31;98671.16;;;-5.42;83.09
47556;BME280;33291;46.222;26.460;2024-01-30T04:18:57;98683.91;;;-5.36;82.43
47556;BME280;33291;46.222;26.460;2024-01-30T04:21:23;98683.91;;;-5.38;82.53
47556;BME280;33291;46.222;26.460;2024-01-30T04:23:50;98683.91;;;-5.39;82.51
47556;BME280;33291;46.222;26.460;2024-01-30T04:26:16;98683.03;;;-5.43;82.45
47556;BME280;33291;46.222;26.460;2024-01-30T04:28:42;98685.50;;;-5.49;82.16
47556;BME280;33291;46.222;26.460;2024-01-30T04:31:07;98673.59;;;-5.56;82.39
47556;BME280;33291;46.222;26.460;2024-01-30T04:33:33;98699.06;;;-5.48;82.55
47556;BME280;33291;46.222;26.460;2024-01-30T04:35:59;98683.72;;;-5.61;82.39
47556;BME280;33291;46.222;26.460;2024-01-30T04:38:24;98693.88;;;-5.59;82.75
47556;BME280;33291;46.222;26.460;2024-01-30T04:40:50;98679.41;;;-5.68;82.30
47556;BME280;33291;46.222;26.460;2024-01-30T04:43:15;98681.97;;;-5.65;82.46
47556;BME280;33291;46.222;26.460;2024-01-30T04:45:41;98687.94;;;-5.61;82.69
47556;BME280;33291;46.222;26.460;2024-01-30T04:48:07;98677.72;;;-5.71;82.92
47556;BME280;33291;46.222;26.460;2024-01-30T04:50:33;98679.34;;;-5.73;82.90
47556;BME280;33291;46.222;26.460;2024-01-30T04:52:58;98687.84;;;-5.74;83.31
47556;BME280;33291;46.222;26.460;2024-01-30T04:55:24;98681.78;;;-5.83;83.41
47556;BME280;33291;46.222;26.460;2024-01-30T04:57:49;98694.50;;;-5.83;83.35
47556;BME280;33291;46.222;26.460;2024-01-30T05:00:15;98686.00;;;-5.89;83.09
47556;BME280;33291;46.222;26.460;2024-01-30T05:02:41;98692.78;;;-5.86;83.23
47556;BME280;33291;46.222;26.460;2024-01-30T05:05:06;98702.09;;;-5.83;83.29
47556;BME280;33291;46.222;26.460;2024-01-30T05:07:33;98695.38;;;-5.81;83.39
47556;BME280;33291;46.222;26.460;2024-01-30T05:09:59;98693.66;;;-5.82;83.45
47556;BME280;33291;46.222;26.460;2024-01-30T05:12:25;98693.66;;;-5.82;82.83
47556;BME280;33291;46.222;26.460;2024-01-30T05:14:50;98689.41;;;-5.85;81.23
47556;BME280;33291;46.222;26.460;2024-01-30T05:17:16;98691.09;;;-5.85;81.96
47556;BME280;33291;46.222;26.460;2024-01-30T05:19:43;98691.88;;;-5.90;81.62
47556;BME280;33291;46.222;26.460;2024-01-30T05:22:09;98696.97;;;-5.90;81.70
47556;BME280;33291;46.222;26.460;2024-01-30T05:24:36;98689.31;;;-5.97;81.47
47556;BME280;33291;46.222;26.460;2024-01-30T05:27:01;98683.38;;;-5.95;81.75
47556;BME280;33291;46.222;26.460;2024-01-30T05:29:27;98677.44;;;-5.95;81.88
47556;BME280;33291;46.222;26.460;2024-01-30T05:31:53;98674.91;;;-5.97;82.26
47556;BME280;33291;46.222;26.460;2024-01-30T05:34:19;98695.22;;;-5.94;82.09
47556;BME280;33291;46.222;26.460;2024-01-30T05:36:44;98691.78;;;-6.02;83.08
47556;BME280;33291;46.222;26.460;2024-01-30T05:39:10;98690.91;;;-6.05;82.50
47556;BME280;33291;46.222;26.460;2024-01-30T05:41:36;98700.22;;;-6.03;82.28
47556;BME280;33291;46.222;26.460;2024-01-30T05:44:01;98695.16;;;-6.03;82.67
47556;BME280;33291;46.222;26.460;2024-01-30T05:46:27;98686.66;;;-6.08;82.93
47556;BME280;33291;46.222;26.460;2024-01-30T05:48:52;98698.53;;;-6.04;82.90
47556;BME280;33291;46.222;26.460;2024-01-30T05:51:18;98695.09;;;-6.09;83.08
47556;BME280;33291;46.222;26.460;2024-01-30T05:53:44;98690.88;;;-6.10;83.19
47556;BME280;33291;46.222;26.460;2024-01-30T05:56:09;98694.25;;;-6.10;83.46
47556;BME280;33291;46.222;26.460;2024-01-30T05:58:35;98683.09;;;-6.21;83.42
47556;BME280;33291;46.222;26.460;2024-01-30T06:01:06;98689.06;;;-6.19;83.61
47556;BME280;33291;46.222;26.460;2024-01-30T06:03:32;98662.59;;;-6.41;83.55
47556;BME280;33291;46.222;26.460;2024-01-30T06:05:58;98691.59;;;-6.19;83.72
47556;BME280;33291;46.222;26.460;2024-01-30T06:08:23;98689.09;;;-6.17;84.10
47556;BME280;33291;46.222;26.460;2024-01-30T06:10:49;98695.84;;;-6.18;82.96
47556;BME280;33291;46.222;26.460;2024-01-30T06:13:15;98696.66;;;-6.20;82.18
47556;BME280;33291;46.222;26.460;2024-01-30T06:15:40;98692.38;;;-6.25;81.94
47556;BME280;33291;46.222;26.460;2024-01-30T06:18:06;98685.56;;;-6.29;81.70
47556;BME280;33291;46.222;26.460;2024-01-30T06:20:31;98706.03;;;-6.15;81.94
47556;BME280;33291;46.222;26.460;2024-01-30T06:22:57;98703.53;;;-6.13;82.10
47556;BME280;33291;46.222;26.460;2024-01-30T06:25:22;98711.16;;;-6.12;82.63
47556;BME280;33291;46.222;26.460;2024-01-30T06:27:48;98708.63;;;-6.10;82.59
47556;BME280;33291;46.222;26.460;2024-01-30T06:30:14;98705.16;;;-6.15;82.23
47556;BME280;33291;46.222;26.460;2024-01-30T06:32:39;98706.88;;;-6.14;81.58
47556;BME280;33291;46.222;26.460;2024-01-30T06:35:05;98682.94;;;-6.35;81.57
47556;BME280;33291;46.222;26.460;2024-01-30T06:37:31;98703.47;;;-6.16;81.30
47556;BME280;33291;46.222;26.460;2024-01-30T06:39:56;98712.00;;;-6.11;81.43
47556;BME280;33291;46.222;26.460;2024-01-30T06:42:22;98699.28;;;-6.14;81.26
47556;BME280;33291;46.222;26.460;2024-01-30T06:44:47;98716.28;;;-6.07;81.10
47556;BME280;33291;46.222;26.460;2024-01-30T06:47:13;98720.47;;;-6.09;80.98
47556;BME280;33291;46.222;26.460;2024-01-30T06:49:39;98718.78;;;-6.10;81.31
47556;BME280;33291;46.222;26.460;2024-01-30T06:52:07;98709.41;;;-6.16;80.86
47556;BME280;33291;46.222;26.460;2024-01-30T06:54:33;98719.53;;;-6.16;80.44
47556;BME280;33291;46.222;26.460;2024-01-30T06:56:59;98711.06;;;-6.19;80.45
47556;BME280;33291;46.222;26.460;2024-01-30T06:59:25;98679.47;;;-6.43;80.24
47556;BME280;33291;46.222;26.460;2024-01-30T07:01:51;98702.50;;;-6.26;80.11
47556;BME280;33291;46.222;26.460;2024-01-30T07:04:16;98722.88;;;-6.20;79.26
47556;BME280;33291;46.222;26.460;2024-01-30T07:06:43;98717.00;;;-6.17;79.42
47556;BME280;33291;46.222;26.460;2024-01-30T07:09:09;98704.16;;;-6.31;79.44
47556;BME280;33291;46.222;26.460;2024-01-30T07:11:34;98722.09;;;-6.16;79.22
47556;BME280;33291;46.222;26.460;2024-01-30T07:14:00;98716.16;;;-6.18;78.92
47556;BME280;33291;46.222;26.460;2024-01-30T07:16:25;98721.22;;;-6.19;79.17
47556;BME280;33291;46.222;26.460;2024-01-30T07:18:51;98696.56;;;-6.30;79.22
47556;BME280;33291;46.222;26.460;2024-01-30T07:21:17;98713.59;;;-6.19;79.12
47556;BME280;33291;46.222;26.460;2024-01-30T07:23:42;98709.38;;;-6.19;79.50
47556;BME280;33291;46.222;26.460;2024-01-30T07:26:08;98667.72;;;-6.35;78.98
47556;BME280;33291;46.222;26.460;2024-01-30T07:28:35;98702.63;;;-6.15;79.20
47556;BME280;33291;46.222;26.460;2024-01-30T07:31:01;98700.97;;;-6.15;79.13
47556;BME280;33291;46.222;26.460;2024-01-30T07:33:27;98689.09;;;-6.17;78.66
47556;BME280;33291;46.222;26.460;2024-01-30T07:35:53;98691.63;;;-6.17;78.94
47556;BME280;33291;46.222;26.460;2024-01-30T07:38:19;98690.81;;;-6.15;79.47
47556;BME280;33291;46.222;26.460;2024-01-30T07:40:44;98684.91;;;-6.12;79.51
47556;BME280;33291;46.222;26.460;2024-01-30T07:43:10;98673.06;;;-6.13;79.46
47556;BME280;33291;46.222;26.460;2024-01-30T07:45:36;98675.69;;;-6.07;80.09
47556;BME280;33291;46.222;26.460;2024-01-30T07:48:03;98689.28;;;-6.00;79.70
47556;BME280;33291;46.222;26.460;2024-01-30T07:50:28;98685.91;;;-5.96;79.70
47556;BME280;33291;46.222;26.460;2024-01-30T07:52:56;98676.66;;;-5.91;79.13
47556;BME280;33291;46.222;26.460;2024-01-30T07:55:22;98671.59;;;-5.90;79.32
47556;BME280;33291;46.222;26.460;2024-01-30T07:57:52;98664.91;;;-5.81;79.67
47556;BME280;33291;46.222;26.460;2024-01-30T08:00:21;98668.31;;;-5.79;79.99
47556;BME280;33291;46.222;26.460;2024-01-30T08:02:46;98666.69;;;-5.71;80.71
47556;BME280;33291;46.222;26.460;2024-01-30T08:05:12;98668.44;;;-5.65;81.05
47556;BME280;33291;46.222;26.460;2024-01-30T08:07:39;98657.44;;;-5.66;81.46
47556;BME280;33291;46.222;26.460;2024-01-30T08:10:05;98664.38;;;-5.46;81.63
47556;BME280;33291;46.222;26.460;2024-01-30T08:12:31;98662.78;;;-5.32;82.07
47556;BME280;33291;46.222;26.460;2024-01-30T08:14:57;98659.53;;;-5.17;81.30
47556;BME280;33291;46.222;26.460;2024-01-30T08:17:22;98652.84;;;-5.00;81.70
47556;BME280;33291;46.222;26.460;2024-01-30T08:19:48;98639.38;;;-4.86;81.14
47556;BME280;33291;46.222;26.460;2024-01-30T08:22:13;98648.88;;;-4.54;79.96
47556;BME280;33291;46.222;26.460;2024-01-30T08:24:41;98649.00;;;-4.28;79.98
47556;BME280;33291;46.222;26.460;2024-01-30T08:27:07;98638.88;;;-4.02;78.88
47556;BME280;33291;46.222;26.460;2024-01-30T08:29:35;98635.53;;;-3.76;77.67
47556;BME280;33291;46.222;26.460;2024-01-30T08:32:01;98633.84;;;-3.46;75.87
47556;BME280;33291;46.222;26.460;2024-01-30T08:34:26;98630.44;;;-3.21;75.18
47556;BME280;33291;46.222;26.460;2024-01-30T08:36:52;98630.41;;;-2.94;74.08
47556;BME280;33291;46.222;26.460;2024-01-30T08:39:18;98624.41;;;-2.73;72.81
47556;BME280;33291;46.222;26.460;2024-01-30T08:41:43;98620.06;;;-2.51;70.91
47556;BME280;33291;46.222;26.460;2024-01-30T08:44:09;98607.22;;;-2.36;69.91
47556;BME280;33291;46.222;26.460;2024-01-30T08:46:36;98615.63;;;-2.09;68.92
47556;BME280;33291;46.222;26.460;2024-01-30T08:49:02;98611.25;;;-1.91;67.13
47556;BME280;33291;46.222;26.460;2024-01-30T08:51:29;98606.00;;;-1.70;65.47
47556;BME280;33291;46.222;26.460;2024-01-30T08:53:55;98613.44;;;-1.40;64.00
47556;BME280;33291;46.222;26.460;2024-01-30T08:56:20;98602.22;;;-1.22;61.08
47556;BME280;33291;46.222;26.460;2024-01-30T08:58:46;98597.72;;;-1.02;61.79
47556;BME280;33291;46.222;26.460;2024-01-30T09:01:11;98594.06;;;-0.78;60.20
47556;BME280;33291;46.222;26.460;2024-01-30T09:03:37;98591.28;;;-0.58;59.79
47556;BME280;33291;46.222;26.460;2024-01-30T09:06:08;98589.28;;;-0.34;58.24
47556;BME280;33291;46.222;26.460;2024-01-30T09:08:34;98587.19;;;-0.04;58.65
47556;BME280;33291;46.222;26.460;2024-01-30T09:10:59;98585.09;;;0.20;57.49
47556;BME280;33291;46.222;26.460;2024-01-30T09:13:25;98576.22;;;0.42;57.07
47556;BME280;33291;46.222;26.460;2024-01-30T09:15:51;98565.03;;;0.48;56.67
47556;BME280;33291;46.222;26.460;2024-01-30T09:18:16;98569.94;;;0.60;58.34
47556;BME280;33291;46.222;26.460;2024-01-30T09:20:42;98560.31;;;0.75;57.29
47556;BME280;33291;46.222;26.460;2024-01-30T09:23:07;98559.03;;;0.97;56.17
47556;BME280;33291;46.222;26.460;2024-01-30T09:25:33;98552.94;;;1.03;55.37
47556;BME280;33291;46.222;26.460;2024-01-30T09:27:59;98527.69;;;0.81;54.34
47556;BME280;33291;46.222;26.460;2024-01-30T09:30:25;98549.50;;;1.04;54.27
47556;BME280;33291;46.222;26.460;2024-01-30T09:32:50;98550.91;;;1.20;53.75
47556;BME280;33291;46.222;26.460;2024-01-30T09:35:16;98555.59;;;1.42;53.21
47556;BME280;33291;46.222;26.460;2024-01-30T09:37:41;98540.72;;;1.58;55.15
47556;BME280;33291;46.222;26.460;2024-01-30T09:40:07;98537.50;;;1.87;53.78
47556;BME280;33291;46.222;26.460;2024-01-30T09:42:34;98535.44;;;2.02;53.11
47556;BME280;33291;46.222;26.460;2024-01-30T09:45:05;98528.56;;;2.04;51.29
47556;BME280;33291;46.222;26.460;2024-01-30T09:47:41;98530.94;;;2.11;52.46
47556;BME280;33291;46.222;26.460;2024-01-30T09:50:13;98522.13;;;2.22;52.04
47556;BME280;33291;46.222;26.460;2024-01-30T09:52:40;98523.47;;;2.37;52.31
47556;BME280;33291;46.222;26.460;2024-01-30T09:55:06;98520.63;;;2.49;51.99
47556;BME280;33291;46.222;26.460;2024-01-30T09:57:33;98525.44;;;2.61;51.16
47556;BME280;33291;46.222;26.460;2024-01-30T09:59:59;98514.03;;;2.70;51.64
47556;BME280;33291;46.222;26.460;2024-01-30T10:02:24;98506.78;;;2.86;51.39
47556;BME280;33291;46.222;26.460;2024-01-30T10:04:51;98464.94;;;2.78;50.57
47556;BME280;33291;46.222;26.460;2024-01-30T10:07:17;98483.00;;;3.08;50.88
47556;BME280;33291;46.222;26.460;2024-01-30T10:09:43;98497.91;;;3.26;50.25
47556;BME280;33291;46.222;26.460;2024-01-30T10:12:09;98489.97;;;3.34;50.11
47556;BME280;33291;46.222;26.460;2024-01-30T10:14:40;98476.31;;;3.32;51.43
47556;BME280;33291;46.222;26.460;2024-01-30T10:17:09;98484.53;;;3.45;51.37
47556;BME280;33291;46.222;26.460;2024-01-30T10:19:41;98483.06;;;3.64;51.04
47556;BME280;33291;46.222;26.460;2024-01-30T10:22:08;98478.78;;;3.91;49.77
47556;BME280;33291;46.222;26.460;2024-01-30T10:24:34;98472.84;;;4.16;48.14
47556;BME280;33291;46.222;26.460;2024-01-30T10:27:00;98472.91;;;4.40;48.59
47556;BME280;33291;46.222;26.460;2024-01-30T10:29:27;98472.31;;;4.57;47.69
47556;BME280;33291;46.222;26.460;2024-01-30T10:32:03;98472.97;;;4.63;47.07
47556;BME280;33291;46.222;26.460;2024-01-30T10:34:30;98454.59;;;4.48;46.84
47556;BME280;33291;46.222;26.460;2024-01-30T10:37:10;98451.91;;;4.51;46.33
47556;BME280;33291;46.222;26.460;2024-01-30T10:39:41;98457.44;;;4.65;46.25
47556;BME280;33291;46.222;26.460;2024-01-30T10:42:11;98454.34;;;4.79;45.50
47556;BME280;33291;46.222;26.460;2024-01-30T10:44:53;98452.34;;;4.87;45.96
47556;BME280;33291;46.222;26.460;2024-01-30T10:47:27;98447.69;;;4.97;45.48
47556;BME280;33291;46.222;26.460;2024-01-30T10:49:54;98448.75;;;5.15;44.80
47556;BME280;33291;46.222;26.460;2024-01-30T10:52:20;98436.91;;;5.09;45.12
47556;BME280;33291;46.222;26.460;2024-01-30T10:54:46;98434.44;;;5.06;44.48
47556;BME280;33291;46.222;26.460;2024-01-30T10:57:13;98433.44;;;5.10;44.53
47556;BME280;33291;46.222;26.460;2024-01-30T10:59:41;98427.44;;;5.32;44.06
47556;BME280;33291;46.222;26.460;2024-01-30T11:02:08;98420.47;;;5.34;44.35
47556;BME280;33291;46.222;26.460;2024-01-30T11:04:39;98433.97;;;5.42;44.62
47556;BME280;33291;46.222;26.460;2024-01-30T11:07:18;98425.91;;;5.50;44.25
47556;BME280;33291;46.222;26.460;2024-01-30T11:10:01;98427.13;;;5.63;44.03
47556;BME280;33291;46.222;26.460;2024-01-30T11:12:28;98418.75;;;5.57;43.82
47556;BME280;33291;46.222;26.460;2024-01-30T11:15:04;98394.16;;;5.46;42.83
47556;BME280;33291;46.222;26.460;2024-01-30T11:22:47;98413.56;;;6.01;43.16
47556;BME280;33291;46.222;26.460;2024-01-30T11:25:16;98407.22;;;6.08;43.09
47556;BME280;33291;46.222;26.460;2024-01-30T11:27:43;98399.69;;;6.24;42.14
47556;BME280;33291;46.222;26.460;2024-01-30T11:30:09;98390.78;;;6.30;41.20
47556;BME280;33291;46.222;26.460;2024-01-30T11:32:35;98404.97;;;6.42;41.12
47556;BME280;33291;46.222;26.460;2024-01-30T11:35:03;98393.03;;;6.37;41.52
47556;BME280;33291;46.222;26.460;2024-01-30T11:37:31;98399.91;;;6.38;41.11
47556;BME280;33291;46.222;26.460;2024-01-30T11:39:56;98404.25;;;6.38;41.65
47556;BME280;33291;46.222;26.460;2024-01-30T11:42:24;98397.53;;;6.34;41.57
47556;BME280;33291;46.222;26.460;2024-01-30T11:44:52;98402.06;;;6.08;42.99
47556;BME280;33291;46.222;26.460;2024-01-30T11:47:17;98388.84;;;5.94;42.63
47556;BME280;33291;46.222;26.460;2024-01-30T11:49:43;98389.06;;;5.87;42.80
47556;BME280;33291;46.222;26.460;2024-01-30T11:52:10;98388.97;;;5.91;42.27
47556;BME280;33291;46.222;26.460;2024-01-30T11:54:35;98387.13;;;5.93;42.36
47556;BME280;33291;46.222;26.460;2024-01-30T11:57:04;98391.91;;;6.03;42.75
47556;BME280;33291;46.222;26.460;2024-01-30T11:59:30;98391.56;;;6.11;42.18
47556;BME280;33291;46.222;26.460;2024-01-30T12:01:55;98382.53;;;6.21;41.88
47556;BME280;33291;46.222;26.460;2024-01-30T12:04:21;98374.63;;;6.25;41.87
47556;BME280;33291;46.222;26.460;2024-01-30T12:06:51;98374.94;;;6.17;42.04
47556;BME280;33291;46.222;26.460;2024-01-30T12:09:16;98386.00;;;6.20;42.62
47556;BME280;33291;46.222;26.460;2024-01-30T12:11:46;98368.22;;;6.13;42.50
47556;BME280;33291;46.222;26.460;2024-01-30T12:14:12;98371.50;;;6.16;41.59
47556;BME280;33291;46.222;26.460;2024-01-30T12:16:38;98373.13;;;6.19;42.20
47556;BME280;33291;46.222;26.460;2024-01-30T12:19:04;98366.88;;;6.25;41.82
47556;BME280;33291;46.222;26.460;2024-01-30T12:21:30;98365.09;;;6.25;42.17
47556;BME280;33291;46.222;26.460;2024-01-30T12:23:59;98350.56;;;6.22;41.94
47556;BME280;33291;46.222;26.460;2024-01-30T12:26:25;98360.47;;;6.33;42.33
47556;BME280;33291;46.222;26.460;2024-01-30T12:28:54;98352.75;;;6.32;42.51
47556;BME280;33291;46.222;26.460;2024-01-30T12:31:31;98359.72;;;6.30;41.96
47556;BME280;33291;46.222;26.460;2024-01-30T12:33:59;98349.50;;;6.27;42.13
47556;BME280;33291;46.222;26.460;2024-01-30T12:36:25;98340.97;;;6.25;42.16
47556;BME280;33291;46.222;26.460;2024-01-30T12:38:50;98345.19;;;6.27;42.14
47556;BME280;33291;46.222;26.460;2024-01-30T12:41:16;98337.88;;;6.16;42.88
47556;BME280;33291;46.222;26.460;2024-01-30T12:43:42;98341.38;;;6.15;43.32
47556;BME280;33291;46.222;26.460;2024-01-30T12:46:08;98337.75;;;5.99;42.67
47556;BME280;33291;46.222;26.460;2024-01-30T12:48:34;98339.59;;;5.97;42.73
47556;BME280;33291;46.222;26.460;2024-01-30T12:50:59;98338.88;;;5.92;42.62
47556;BME280;33291;46.222;26.460;2024-01-30T12:53:25;98345.75;;;5.93;43.57